Citadel — PBOK — position and weather

sailwx.info

Track history (hours):
 
Tides and Currents Weather Stations Pressure Air Temp Water Temp Dewpoint Dewpoint Depression Visibility Wind Speed Wind Dir Waves Ship Positions

Citadel

Last reported at 2014-Aug-29 21:33 UTC. Time now 2014-Aug-29 22:28 UTC.
Position N 49°26' E 000°08'.

Length 111 m; draft 4 m.

Type: Cargo ship. MMSI: 245977000.

Date/timePositionNaut miles runAvg speedWind from/ knotsBaromVisibWave heightAir tempDewpointWater temp
2014-Aug-29 21:33N 49°26' E 000°08'1211.5
2014-Aug-29 20:33N 49°27' E 000°26'9 0.3
2014-Aug-28 11:20N 49°27' E 000°40'810.1
2014-Aug-28 10:33N 49°28' E 000°28'1313.4
2014-Aug-28 09:34N 49°26' E 000°08'10 9.5
2014-Aug-28 08:33N 49°32' W 000°04'4912.3
2014-Aug-28 04:33N 50°16' E 000°29'1212.0
2014-Aug-28 03:34N 50°28' E 000°32'1111.3
2014-Aug-28 02:33N 50°37' E 000°43'1111.4
2014-Aug-28 01:34N 50°44' E 000°57'2010.1
2014-Aug-27 23:32N 50°57' E 001°21'1111.4
2014-Aug-27 22:34N 51°05' E 001°34'1110.9
2014-Aug-27 21:34N 51°02' E 001°51'1413.1
2014-Aug-27 20:31N 51°03' E 002°13'5 5.0
2014-Aug-27 19:33N 51°03' E 002°20'2 2.1
2014-Aug-27 18:32N 51°03' E 002°17'0 0.0
2014-Aug-27 17:25N 51°03' E 002°17'0 0.0
2014-Aug-27 16:30N 51°03' E 002°17'0 0.0
2014-Aug-27 15:33N 51°03' E 002°17'0 0.0
2014-Aug-27 14:32N 51°03' E 002°17'0 0.0
2014-Aug-27 13:20N 51°03' E 002°17'0 0.0
2014-Aug-27 12:22N 51°03' E 002°17'0 0.0
2014-Aug-27 11:25N 51°03' E 002°17'0 0.0
2014-Aug-27 10:28N 51°03' E 002°17'0 0.0
2014-Aug-27 09:33N 51°03' E 002°17'0 0.0
2014-Aug-27 07:20N 51°03' E 002°17'0 0.0
2014-Aug-27 06:27N 51°03' E 002°17'0 0.0
2014-Aug-27 05:28N 51°03' E 002°17'0 0.0
2014-Aug-27 04:33N 51°03' E 002°17'3 2.6
2014-Aug-27 03:32N 51°04' E 002°21'2211.3
2014-Aug-27 01:33N 51°04' E 001°46'9 8.6
2014-Aug-27 00:34N 51°12' E 001°45'1010.1
2014-Aug-26 23:34N 51°21' E 001°54'1010.0
2014-Aug-26 22:33N 51°29' E 002°03'1110.7
2014-Aug-26 21:33N 51°37' E 002°14'7113.2
2014-Aug-26 16:09N 52°33' E 003°27'712.3
2014-Aug-26 15:33N 52°39' E 003°34'6713.4
2014-Aug-26 10:33N 53°30' E 004°47'1313.3
2014-Aug-26 09:33N 53°34' E 005°08'1312.8
2014-Aug-26 08:33N 53°39' E 005°28'1212.4
2014-Aug-26 07:33N 53°43' E 005°48'6813.5
2014-Aug-26 02:31N 53°58' E 007°41'1313.2
2014-Aug-26 01:33N 53°51' E 007°59'1414.5
2014-Aug-26 00:33N 53°43' E 008°19'1212.4
2014-Aug-25 23:33N 53°33' E 008°33'1010.2
2014-Aug-25 22:33N 53°24' E 008°30'1111.0
2014-Aug-25 21:33N 53°13' E 008°30'9 8.9
2014-Aug-25 20:34N 53°07' E 008°42'1 0.6
2014-Aug-25 19:32N 53°07' E 008°43'0 0.0
2014-Aug-25 18:32N 53°07' E 008°43'0 0.0
2014-Aug-25 17:31N 53°07' E 008°43'0 0.0
2014-Aug-25 16:31N 53°07' E 008°43'0 0.0
2014-Aug-25 15:31N 53°07' E 008°43'0 0.0
2014-Aug-25 14:33N 53°07' E 008°43'0 0.0
2014-Aug-25 13:33N 53°07' E 008°43'0 0.0
2014-Aug-25 12:32N 53°07' E 008°43'0 0.0
2014-Aug-25 11:32N 53°07' E 008°43'0 0.0
2014-Aug-25 10:31N 53°07' E 008°43'0 0.0
2014-Aug-25 09:31N 53°07' E 008°43'0 0.0
2014-Aug-25 08:31N 53°07' E 008°43'0 0.0
2014-Aug-25 07:33N 53°07' E 008°43'0 0.0
2014-Aug-25 06:33N 53°07' E 008°43'0 0.0
2014-Aug-25 05:32N 53°07' E 008°43'0 0.0
2014-Aug-25 04:32N 53°07' E 008°43'0 0.0
2014-Aug-25 03:31N 53°07' E 008°43'0 0.0
2014-Aug-25 02:31N 53°07' E 008°43'0 0.0
2014-Aug-25 01:34N 53°07' E 008°43'0 0.0
2014-Aug-25 00:33N 53°07' E 008°43'0 0.0
2014-Aug-24 23:33N 53°07' E 008°43'0 0.0
2014-Aug-24 22:29N 53°07' E 008°43'0 0.0
2014-Aug-24 21:32N 53°07' E 008°43'0 0.0
2014-Aug-24 20:31N 53°07' E 008°43'0 0.0
2014-Aug-24 19:31N 53°07' E 008°43'0 0.0
2014-Aug-24 18:34N 53°07' E 008°43'0 0.0
2014-Aug-24 17:33N 53°07' E 008°43'0 0.0
2014-Aug-24 16:33N 53°07' E 008°43'0 0.0
2014-Aug-24 15:32N 53°07' E 008°43'0 0.0
2014-Aug-24 14:29N 53°07' E 008°43'0 0.3
2014-Aug-24 13:31N 53°07' E 008°43'2 1.9
2014-Aug-24 12:33N 53°08' E 008°40'1010.1
2014-Aug-24 11:33N 53°15' E 008°29'1211.9
2014-Aug-24 10:33N 53°27' E 008°29'1110.6
2014-Aug-24 09:33N 53°38' E 008°27'1514.4
2014-Aug-24 08:33N 53°47' E 008°09'1312.7
2014-Aug-24 07:34N 53°53' E 007°49'1 1.0
2014-Aug-24 06:13N 53°54' E 007°48'0 0.0
2014-Aug-24 05:31N 53°54' E 007°48'0 0.0
2014-Aug-24 04:30N 53°54' E 007°48'0 0.0
2014-Aug-24 03:33N 53°54' E 007°48'0 0.0
2014-Aug-23 20:30N 53°54' E 007°48'0 0.0
2014-Aug-23 19:29N 53°54' E 007°48'0 0.0
2014-Aug-23 03:10N 53°54' E 007°48'0 0.0
2014-Aug-23 02:31N 53°54' E 007°48'0 0.0
2014-Aug-23 00:33N 53°54' E 007°48'0 0.0
2014-Aug-22 23:30N 53°54' E 007°48'0 0.0
2014-Aug-22 22:20N 53°54' E 007°48'0 0.0
2014-Aug-22 21:14N 53°54' E 007°48'0 0.0
2014-Aug-22 20:25N 53°54' E 007°48'5 5.3
2014-Aug-22 19:33N 53°54' E 007°40'5213.1
2014-Aug-22 15:33N 53°43' E 006°14'1312.8
2014-Aug-22 14:33N 53°38' E 005°53'1312.6
2014-Aug-22 13:33N 53°34' E 005°33'1212.1
2014-Aug-22 12:34N 53°31' E 005°14'1211.7
2014-Aug-22 11:33N 53°26' E 004°56'1111.1
2014-Aug-22 10:33N 53°20' E 004°40'3411.3
2014-Aug-22 07:33N 52°50' E 004°12'1111.0
2014-Aug-22 06:33N 52°42' E 004°01'7712.1
2014-Aug-22 00:12N 51°45' E 002°37'913.3
2014-Aug-21 23:33N 51°39' E 002°28'1513.4
2014-Aug-21 22:28N 51°27' E 002°13'1313.4
2014-Aug-21 21:31N 51°16' E 002°05'1313.9
2014-Aug-21 20:33N 51°07' E 001°49'8 7.5
2014-Aug-21 19:28N 51°03' E 002°01'1010.9
2014-Aug-21 18:33N 51°04' E 002°16'2 1.8
2014-Aug-21 17:32N 51°03' E 002°19'2 2.2
2014-Aug-21 16:33N 51°02' E 002°16'0 0.0
2014-Aug-21 15:33N 51°02' E 002°16'0 0.0
2014-Aug-21 14:11N 51°02' E 002°16'0 0.0
2014-Aug-21 13:28N 51°02' E 002°16'0 0.0
2014-Aug-21 12:28N 51°02' E 002°16'0 0.0
2014-Aug-21 11:31N 51°02' E 002°16'0 0.0
2014-Aug-21 10:21N 51°02' E 002°16'0 0.0
2014-Aug-21 09:24N 51°02' E 002°16'0 0.0
2014-Aug-21 08:32N 51°02' E 002°16'0 0.0
2014-Aug-21 07:11N 51°02' E 002°16'0 0.0
2014-Aug-21 06:16N 51°02' E 002°16'0 0.0
2014-Aug-21 05:31N 51°02' E 002°16'0 0.0
2014-Aug-21 04:31N 51°02' E 002°16'0 0.0
2014-Aug-21 01:24N 51°02' E 002°16'0 0.0
2014-Aug-21 00:14N 51°02' E 002°16'0 0.0
2014-Aug-20 23:07N 51°02' E 002°16'0 0.0
2014-Aug-20 22:31N 51°02' E 002°16'0 0.0
2014-Aug-20 21:18N 51°02' E 002°16'0 0.0
2014-Aug-20 20:12N 51°02' E 002°16'0 0.0
2014-Aug-20 19:27N 51°02' E 002°16'0 0.0
2014-Aug-20 18:29N 51°02' E 002°16'0 0.0
2014-Aug-20 17:26N 51°02' E 002°16'0 0.0
2014-Aug-20 16:28N 51°02' E 002°16'0 0.0
2014-Aug-20 15:25N 51°02' E 002°16'0 0.0
2014-Aug-20 14:34N 51°02' E 002°16'0 0.0
2014-Aug-20 13:33N 51°02' E 002°16'0 0.0
2014-Aug-20 12:24N 51°02' E 002°16'0 0.0
2014-Aug-20 11:29N 51°02' E 002°16'0 0.0
2014-Aug-20 10:32N 51°02' E 002°16'0 0.0
2014-Aug-20 09:31N 51°02' E 002°16'0 0.0
2014-Aug-20 08:25N 51°02' E 002°16'0 0.0
2014-Aug-20 07:25N 51°02' E 002°16'0 0.0
2014-Aug-20 06:30N 51°02' E 002°16'0 0.0
2014-Aug-20 05:30N 51°02' E 002°16'0 0.0
2014-Aug-20 02:13N 51°02' E 002°16'0 0.0
2014-Aug-20 00:27N 51°02' E 002°16'3 3.0
2014-Aug-19 23:27N 51°03' E 002°20'  
Track history (hours):
 
Tides and Currents Weather Stations Pressure Air Temp Water Temp Dewpoint Dewpoint Depression Visibility Wind Speed Wind Dir Waves Ship Positions

Citadel

Last reported at 2014-Aug-29 21:33 UTC. Time now 2014-Aug-29 22:28 UTC.
Position N 49°26' E 000°08'.

Length 111 m; draft 4 m.

Type: Cargo ship. MMSI: 245977000.

Date/timePositionNaut miles runAvg speedWind from/ knotsBaromVisibWave heightAir tempDewpointWater temp
2014-Aug-29 21:33N 49°26' E 000°08'1211.5
2014-Aug-29 20:33N 49°27' E 000°26'9 0.3
2014-Aug-28 11:20N 49°27' E 000°40'810.1
2014-Aug-28 10:33N 49°28' E 000°28'1313.4
2014-Aug-28 09:34N 49°26' E 000°08'10 9.5
2014-Aug-28 08:33N 49°32' W 000°04'4912.3
2014-Aug-28 04:33N 50°16' E 000°29'1212.0
2014-Aug-28 03:34N 50°28' E 000°32'1111.3
2014-Aug-28 02:33N 50°37' E 000°43'1111.4
2014-Aug-28 01:34N 50°44' E 000°57'2010.1
2014-Aug-27 23:32N 50°57' E 001°21'1111.4
2014-Aug-27 22:34N 51°05' E 001°34'1110.9
2014-Aug-27 21:34N 51°02' E 001°51'1413.1
2014-Aug-27 20:31N 51°03' E 002°13'5 5.0
2014-Aug-27 19:33N 51°03' E 002°20'2 2.1
2014-Aug-27 18:32N 51°03' E 002°17'0 0.0
2014-Aug-27 17:25N 51°03' E 002°17'0 0.0
2014-Aug-27 16:30N 51°03' E 002°17'0 0.0
2014-Aug-27 15:33N 51°03' E 002°17'0 0.0
2014-Aug-27 14:32N 51°03' E 002°17'0 0.0
2014-Aug-27 13:20N 51°03' E 002°17'0 0.0
2014-Aug-27 12:22N 51°03' E 002°17'0 0.0
2014-Aug-27 11:25N 51°03' E 002°17'0 0.0
2014-Aug-27 10:28N 51°03' E 002°17'0 0.0
2014-Aug-27 09:33N 51°03' E 002°17'0 0.0
2014-Aug-27 07:20N 51°03' E 002°17'0 0.0
2014-Aug-27 06:27N 51°03' E 002°17'0 0.0
2014-Aug-27 05:28N 51°03' E 002°17'0 0.0
2014-Aug-27 04:33N 51°03' E 002°17'3 2.6
2014-Aug-27 03:32N 51°04' E 002°21'2211.3
2014-Aug-27 01:33N 51°04' E 001°46'9 8.6
2014-Aug-27 00:34N 51°12' E 001°45'1010.1
2014-Aug-26 23:34N 51°21' E 001°54'1010.0
2014-Aug-26 22:33N 51°29' E 002°03'1110.7
2014-Aug-26 21:33N 51°37' E 002°14'7113.2
2014-Aug-26 16:09N 52°33' E 003°27'712.3
2014-Aug-26 15:33N 52°39' E 003°34'6713.4
2014-Aug-26 10:33N 53°30' E 004°47'1313.3
2014-Aug-26 09:33N 53°34' E 005°08'1312.8
2014-Aug-26 08:33N 53°39' E 005°28'1212.4
2014-Aug-26 07:33N 53°43' E 005°48'6813.5
2014-Aug-26 02:31N 53°58' E 007°41'1313.2
2014-Aug-26 01:33N 53°51' E 007°59'1414.5
2014-Aug-26 00:33N 53°43' E 008°19'1212.4
2014-Aug-25 23:33N 53°33' E 008°33'1010.2
2014-Aug-25 22:33N 53°24' E 008°30'1111.0
2014-Aug-25 21:33N 53°13' E 008°30'9 8.9
2014-Aug-25 20:34N 53°07' E 008°42'1 0.6
2014-Aug-25 19:32N 53°07' E 008°43'0 0.0
2014-Aug-25 18:32N 53°07' E 008°43'0 0.0
2014-Aug-25 17:31N 53°07' E 008°43'0 0.0
2014-Aug-25 16:31N 53°07' E 008°43'0 0.0
2014-Aug-25 15:31N 53°07' E 008°43'0 0.0
2014-Aug-25 14:33N 53°07' E 008°43'0 0.0
2014-Aug-25 13:33N 53°07' E 008°43'0 0.0
2014-Aug-25 12:32N 53°07' E 008°43'0 0.0
2014-Aug-25 11:32N 53°07' E 008°43'0 0.0
2014-Aug-25 10:31N 53°07' E 008°43'0 0.0
2014-Aug-25 09:31N 53°07' E 008°43'0 0.0
2014-Aug-25 08:31N 53°07' E 008°43'0 0.0
2014-Aug-25 07:33N 53°07' E 008°43'0 0.0
2014-Aug-25 06:33N 53°07' E 008°43'0 0.0
2014-Aug-25 05:32N 53°07' E 008°43'0 0.0
2014-Aug-25 04:32N 53°07' E 008°43'0 0.0
2014-Aug-25 03:31N 53°07' E 008°43'0 0.0
2014-Aug-25 02:31N 53°07' E 008°43'0 0.0
2014-Aug-25 01:34N 53°07' E 008°43'0 0.0
2014-Aug-25 00:33N 53°07' E 008°43'0 0.0
2014-Aug-24 23:33N 53°07' E 008°43'0 0.0
2014-Aug-24 22:29N 53°07' E 008°43'0 0.0
2014-Aug-24 21:32N 53°07' E 008°43'0 0.0
2014-Aug-24 20:31N 53°07' E 008°43'0 0.0
2014-Aug-24 19:31N 53°07' E 008°43'0 0.0
2014-Aug-24 18:34N 53°07' E 008°43'0 0.0
2014-Aug-24 17:33N 53°07' E 008°43'0 0.0
2014-Aug-24 16:33N 53°07' E 008°43'0 0.0
2014-Aug-24 15:32N 53°07' E 008°43'0 0.0
2014-Aug-24 14:29N 53°07' E 008°43'0 0.3
2014-Aug-24 13:31N 53°07' E 008°43'2 1.9
2014-Aug-24 12:33N 53°08' E 008°40'1010.1
2014-Aug-24 11:33N 53°15' E 008°29'1211.9
2014-Aug-24 10:33N 53°27' E 008°29'1110.6
2014-Aug-24 09:33N 53°38' E 008°27'1514.4
2014-Aug-24 08:33N 53°47' E 008°09'1312.7
2014-Aug-24 07:34N 53°53' E 007°49'1 1.0
2014-Aug-24 06:13N 53°54' E 007°48'0 0.0
2014-Aug-24 05:31N 53°54' E 007°48'0 0.0
2014-Aug-24 04:30N 53°54' E 007°48'0 0.0
2014-Aug-24 03:33N 53°54' E 007°48'0 0.0
2014-Aug-23 20:30N 53°54' E 007°48'0 0.0
2014-Aug-23 19:29N 53°54' E 007°48'0 0.0
2014-Aug-23 03:10N 53°54' E 007°48'0 0.0
2014-Aug-23 02:31N 53°54' E 007°48'0 0.0
2014-Aug-23 00:33N 53°54' E 007°48'0 0.0
2014-Aug-22 23:30N 53°54' E 007°48'0 0.0
2014-Aug-22 22:20N 53°54' E 007°48'0 0.0
2014-Aug-22 21:14N 53°54' E 007°48'0 0.0
2014-Aug-22 20:25N 53°54' E 007°48'5 5.3
2014-Aug-22 19:33N 53°54' E 007°40'5213.1
2014-Aug-22 15:33N 53°43' E 006°14'1312.8
2014-Aug-22 14:33N 53°38' E 005°53'1312.6
2014-Aug-22 13:33N 53°34' E 005°33'1212.1
2014-Aug-22 12:34N 53°31' E 005°14'1211.7
2014-Aug-22 11:33N 53°26' E 004°56'1111.1
2014-Aug-22 10:33N 53°20' E 004°40'3411.3
2014-Aug-22 07:33N 52°50' E 004°12'1111.0
2014-Aug-22 06:33N 52°42' E 004°01'7712.1
2014-Aug-22 00:12N 51°45' E 002°37'913.3
2014-Aug-21 23:33N 51°39' E 002°28'1513.4
2014-Aug-21 22:28N 51°27' E 002°13'1313.4
2014-Aug-21 21:31N 51°16' E 002°05'1313.9
2014-Aug-21 20:33N 51°07' E 001°49'8 7.5
2014-Aug-21 19:28N 51°03' E 002°01'1010.9
2014-Aug-21 18:33N 51°04' E 002°16'2 1.8
2014-Aug-21 17:32N 51°03' E 002°19'2 2.2
2014-Aug-21 16:33N 51°02' E 002°16'0 0.0
2014-Aug-21 15:33N 51°02' E 002°16'0 0.0
2014-Aug-21 14:11N 51°02' E 002°16'0 0.0
2014-Aug-21 13:28N 51°02' E 002°16'0 0.0
2014-Aug-21 12:28N 51°02' E 002°16'0 0.0
2014-Aug-21 11:31N 51°02' E 002°16'0 0.0
2014-Aug-21 10:21N 51°02' E 002°16'0 0.0
2014-Aug-21 09:24N 51°02' E 002°16'0 0.0
2014-Aug-21 08:32N 51°02' E 002°16'0 0.0
2014-Aug-21 07:11N 51°02' E 002°16'0 0.0
2014-Aug-21 06:16N 51°02' E 002°16'0 0.0
2014-Aug-21 05:31N 51°02' E 002°16'0 0.0
2014-Aug-21 04:31N 51°02' E 002°16'0 0.0
2014-Aug-21 01:24N 51°02' E 002°16'0 0.0
2014-Aug-21 00:14N 51°02' E 002°16'0 0.0
2014-Aug-20 23:07N 51°02' E 002°16'0 0.0
2014-Aug-20 22:31N 51°02' E 002°16'0 0.0
2014-Aug-20 21:18N 51°02' E 002°16'0 0.0
2014-Aug-20 20:12N 51°02' E 002°16'0 0.0
2014-Aug-20 19:27N 51°02' E 002°16'0 0.0
2014-Aug-20 18:29N 51°02' E 002°16'0 0.0
2014-Aug-20 17:26N 51°02' E 002°16'0 0.0
2014-Aug-20 16:28N 51°02' E 002°16'0 0.0
2014-Aug-20 15:25N 51°02' E 002°16'0 0.0
2014-Aug-20 14:34N 51°02' E 002°16'0 0.0
2014-Aug-20 13:33N 51°02' E 002°16'0 0.0
2014-Aug-20 12:24N 51°02' E 002°16'0 0.0
2014-Aug-20 11:29N 51°02' E 002°16'0 0.0
2014-Aug-20 10:32N 51°02' E 002°16'0 0.0
2014-Aug-20 09:31N 51°02' E 002°16'0 0.0
2014-Aug-20 08:25N 51°02' E 002°16'0 0.0
2014-Aug-20 07:25N 51°02' E 002°16'0 0.0
2014-Aug-20 06:30N 51°02' E 002°16'0 0.0
2014-Aug-20 05:30N 51°02' E 002°16'0 0.0
2014-Aug-20 02:13N 51°02' E 002°16'0 0.0
2014-Aug-20 00:27N 51°02' E 002°16'3 3.0
2014-Aug-19 23:27N 51°03' E 002°20'  

Dump ship's entire track history